createdAt,value
2019-03-09T00:01:33.566Z,8.70
2019-03-09T00:04:03.057Z,8.83
2019-03-09T00:06:32.407Z,8.60
2019-03-09T00:09:01.729Z,8.23
2019-03-09T00:11:31.069Z,8.07
2019-03-09T00:14:01.447Z,8.90
2019-03-09T00:16:31.189Z,8.17
2019-03-09T00:19:00.599Z,9.27
2019-03-09T00:21:29.865Z,8.73
2019-03-09T00:24:20.802Z,7.67
2019-03-09T00:26:57.399Z,8.03
2019-03-09T00:29:48.724Z,7.80
2019-03-09T00:32:20.042Z,9.27
2019-03-09T00:34:49.388Z,8.03
2019-03-09T00:37:18.702Z,7.93
2019-03-09T00:39:48.034Z,7.00
2019-03-09T00:42:17.394Z,8.13
2019-03-09T00:44:46.768Z,8.23
2019-03-09T00:47:16.087Z,8.63
2019-03-09T00:49:45.427Z,7.20
2019-03-09T00:52:14.759Z,8.67
2019-03-09T00:54:44.076Z,7.17
2019-03-09T00:57:13.414Z,8.23
2019-03-09T00:59:42.734Z,7.40
2019-03-09T01:02:12.065Z,8.93
2019-03-09T01:04:41.397Z,7.93
2019-03-09T01:07:10.736Z,9.13
2019-03-09T01:09:40.045Z,9.73
2019-03-09T01:12:09.371Z,7.37
2019-03-09T01:14:38.713Z,9.40
2019-03-09T01:17:08.057Z,7.73
2019-03-09T01:19:37.416Z,8.30
2019-03-09T01:22:06.860Z,7.90
2019-03-09T01:24:36.200Z,7.73
2019-03-09T01:27:07.011Z,8.10
2019-03-09T01:29:36.349Z,6.70
2019-03-09T01:32:05.700Z,7.70
2019-03-09T01:34:35.053Z,6.83
2019-03-09T01:37:04.372Z,7.47
2019-03-09T01:39:33.699Z,6.30
2019-03-09T01:42:03.062Z,7.63
2019-03-09T01:44:32.353Z,7.40
2019-03-09T01:47:01.690Z,6.97
2019-03-09T01:49:31.019Z,7.67
2019-03-09T01:52:02.683Z,7.10
2019-03-09T01:54:32.012Z,6.70
2019-03-09T01:57:01.369Z,7.87
2019-03-09T01:59:30.695Z,7.40
2019-03-09T02:02:00.036Z,7.77
2019-03-09T02:04:29.378Z,8.23
2019-03-09T02:06:58.700Z,7.63
2019-03-09T02:09:28.030Z,8.60
2019-03-09T02:11:57.372Z,7.47
2019-03-09T02:14:26.722Z,7.97
2019-03-09T02:16:56.087Z,7.87
2019-03-09T02:19:25.441Z,8.80
2019-03-09T02:21:54.746Z,8.47
2019-03-09T02:24:24.099Z,8.83
2019-03-09T02:26:53.416Z,8.17
2019-03-09T02:29:22.722Z,8.30
2019-03-09T02:31:52.076Z,9.63
2019-03-09T02:34:21.477Z,8.33
2019-03-09T02:36:50.848Z,7.63
2019-03-09T02:39:33.932Z,8.80
2019-03-09T02:42:03.275Z,7.07
2019-03-09T02:44:32.590Z,7.70
2019-03-09T02:47:01.953Z,8.07
2019-03-09T02:49:31.352Z,8.03
2019-03-09T02:52:00.694Z,7.53
2019-03-09T02:54:30.031Z,8.13
2019-03-09T02:56:59.369Z,8.93
2019-03-09T02:59:28.679Z,7.70
2019-03-09T03:02:23.317Z,9.17
2019-03-09T03:04:52.660Z,7.93
2019-03-09T03:07:21.951Z,9.43
2019-03-09T03:09:51.298Z,11.50
2019-03-09T03:12:20.637Z,9.07
2019-03-09T03:14:49.947Z,8.37
2019-03-09T03:17:19.309Z,10.03
2019-03-09T03:19:48.652Z,9.80
2019-03-09T03:22:18.000Z,9.70
2019-03-09T03:24:47.335Z,6.03
2019-03-09T03:27:16.736Z,7.77
2019-03-09T03:29:46.043Z,7.57
2019-03-09T03:32:15.395Z,7.17
2019-03-09T03:34:44.719Z,6.80
2019-03-09T03:37:14.048Z,7.83
2019-03-09T03:39:43.387Z,7.67
2019-03-09T03:42:12.701Z,6.67
2019-03-09T03:44:45.341Z,7.03
2019-03-09T03:47:17.814Z,8.80
2019-03-09T03:49:47.155Z,8.30
2019-03-09T03:52:16.495Z,8.30
2019-03-09T03:54:45.823Z,7.43
2019-03-09T03:57:15.170Z,8.47
2019-03-09T03:59:44.523Z,8.27
2019-03-09T04:02:13.863Z,8.83
2019-03-09T04:04:43.223Z,7.00
2019-03-09T04:07:12.634Z,8.47
2019-03-09T04:09:42.164Z,9.33
2019-03-09T04:12:11.525Z,7.90
2019-03-09T04:14:40.850Z,8.43
2019-03-09T04:17:10.220Z,8.40
2019-03-09T04:19:39.569Z,7.30
2019-03-09T04:22:08.965Z,8.37
2019-03-09T04:24:39.744Z,7.80
2019-03-09T04:27:10.164Z,8.67
2019-03-09T04:29:39.506Z,8.90
2019-03-09T04:32:08.828Z,7.27
2019-03-09T04:34:38.199Z,9.77
2019-03-09T04:37:07.512Z,8.40
2019-03-09T04:39:36.871Z,6.13
2019-03-09T04:42:06.217Z,8.10
2019-03-09T04:44:35.569Z,8.00
2019-03-09T04:47:04.909Z,9.23
2019-03-09T04:49:34.213Z,9.43
2019-03-09T04:52:03.617Z,8.43
2019-03-09T04:54:32.936Z,9.23
2019-03-09T04:57:02.255Z,9.77
2019-03-09T04:59:31.593Z,9.70
2019-03-09T05:02:00.931Z,8.87
2019-03-09T05:04:50.112Z,9.47
2019-03-09T05:08:18.314Z,7.83
2019-03-09T05:11:06.656Z,9.23
2019-03-09T05:13:55.893Z,6.97
2019-03-09T05:16:25.224Z,7.53
2019-03-09T05:18:54.578Z,6.93
2019-03-09T05:21:23.933Z,7.67
2019-03-09T05:23:53.259Z,6.67
2019-03-09T05:26:22.592Z,7.73
2019-03-09T05:28:51.937Z,7.43
2019-03-09T05:31:22.378Z,4.67
2019-03-09T05:33:51.714Z,6.87
2019-03-09T05:36:21.038Z,4.10
2019-03-09T05:38:51.264Z,5.90
2019-03-09T05:41:20.622Z,8.60
2019-03-09T05:43:49.979Z,5.83
2019-03-09T05:46:19.304Z,6.97
2019-03-09T05:48:48.659Z,6.77
2019-03-09T05:51:17.992Z,6.30
2019-03-09T05:53:47.304Z,6.80
2019-03-09T05:56:16.687Z,5.60
2019-03-09T05:58:45.999Z,6.73
2019-03-09T06:01:15.351Z,6.23
2019-03-09T06:03:44.706Z,6.57
2019-03-09T06:06:18.670Z,7.77
2019-03-09T06:08:49.308Z,7.80
2019-03-09T06:11:18.672Z,6.70
2019-03-09T06:13:47.991Z,6.40
2019-03-09T06:16:17.366Z,7.13
2019-03-09T06:18:46.684Z,5.97
2019-03-09T06:21:16.030Z,6.53
2019-03-09T06:23:45.400Z,6.27
2019-03-09T06:26:14.773Z,6.53
2019-03-09T06:28:44.113Z,6.83
2019-03-09T06:31:13.445Z,6.80
2019-03-09T06:33:44.492Z,6.00
2019-03-09T06:37:05.915Z,6.00
2019-03-09T06:39:50.570Z,8.47
2019-03-09T06:42:33.220Z,7.57
2019-03-09T06:45:02.566Z,6.47
2019-03-09T06:47:31.897Z,7.20
2019-03-09T06:50:01.264Z,6.03
2019-03-09T06:52:30.598Z,8.07
2019-03-09T06:55:00.963Z,5.33
2019-03-09T06:57:31.282Z,8.00
2019-03-09T07:00:00.633Z,6.53
2019-03-09T07:02:29.977Z,5.97
2019-03-09T07:04:59.322Z,6.17
2019-03-09T07:07:28.650Z,6.40
2019-03-09T07:09:58.016Z,6.93
2019-03-09T07:12:27.358Z,6.03
2019-03-09T07:15:25.642Z,6.73
2019-03-09T07:18:06.574Z,7.17
2019-03-09T07:20:35.966Z,7.83
2019-03-09T07:23:05.319Z,10.03
2019-03-09T07:25:34.697Z,6.37
2019-03-09T07:28:08.717Z,6.10
2019-03-09T07:30:38.079Z,7.10
2019-03-09T07:33:09.410Z,6.60
2019-03-09T07:35:38.759Z,6.63
2019-03-09T07:38:08.181Z,8.10
2019-03-09T07:40:37.472Z,6.80
2019-03-09T07:43:06.879Z,8.43
2019-03-09T07:45:36.202Z,7.67
2019-03-09T07:48:05.520Z,9.57
2019-03-09T07:50:34.934Z,7.87
2019-03-09T07:53:04.260Z,6.87
2019-03-09T07:55:33.596Z,7.60
2019-03-09T07:58:04.627Z,7.70
2019-03-09T08:00:33.972Z,7.37
2019-03-09T08:03:03.407Z,8.00
2019-03-09T08:05:34.882Z,8.73
2019-03-09T08:08:04.189Z,8.37
2019-03-09T08:10:33.500Z,9.23
2019-03-09T08:13:02.853Z,6.73
2019-03-09T08:15:32.234Z,6.33
2019-03-09T08:18:01.517Z,7.13
2019-03-09T08:20:30.916Z,8.00
2019-03-09T08:23:00.419Z,9.13
2019-03-09T08:25:29.747Z,7.97
2019-03-09T08:27:59.121Z,8.93
2019-03-09T08:30:28.443Z,8.33
2019-03-09T08:32:57.992Z,7.93
2019-03-09T08:35:27.317Z,10.00
2019-03-09T08:37:56.712Z,10.33
2019-03-09T08:40:26.005Z,9.60
2019-03-09T08:42:55.370Z,9.27
2019-03-09T08:45:24.831Z,9.40
2019-03-09T08:47:55.199Z,10.00
2019-03-09T08:50:24.631Z,8.73
2019-03-09T08:52:53.949Z,8.20
2019-03-09T08:55:23.304Z,9.03
2019-03-09T08:57:52.768Z,9.83
2019-03-09T09:00:27.102Z,9.33
2019-03-09T09:02:56.530Z,8.37
2019-03-09T09:05:25.999Z,9.83
2019-03-09T09:07:55.490Z,8.50
2019-03-09T09:10:24.887Z,8.73
2019-03-09T09:12:54.354Z,7.03
2019-03-09T09:15:23.709Z,9.03
2019-03-09T09:17:53.070Z,9.20
2019-03-09T09:20:22.795Z,8.77
2019-03-09T09:22:52.166Z,6.97
2019-03-09T09:25:21.595Z,9.00
2019-03-09T09:27:52.088Z,7.97
2019-03-09T09:30:23.623Z,8.33
2019-03-09T09:32:53.070Z,5.43
2019-03-09T09:35:22.611Z,5.97
2019-03-09T09:37:52.206Z,6.63
2019-03-09T09:40:22.661Z,6.43
2019-03-09T09:42:52.121Z,7.57
2019-03-09T09:45:21.672Z,7.03
2019-03-09T09:47:51.010Z,7.33
2019-03-09T09:50:20.445Z,8.30
2019-03-09T09:52:49.801Z,8.23
2019-03-09T09:55:19.173Z,7.33
2019-03-09T09:57:48.541Z,7.57
2019-03-09T10:00:22.534Z,7.03
2019-03-09T10:02:51.960Z,7.00
2019-03-09T10:05:21.708Z,6.43
2019-03-09T10:07:51.037Z,7.43
2019-03-09T10:10:20.419Z,6.43
2019-03-09T10:12:49.891Z,5.07
2019-03-09T10:15:21.353Z,6.17
2019-03-09T10:17:50.682Z,4.80
2019-03-09T10:20:20.025Z,3.93
2019-03-09T10:22:49.389Z,3.53
2019-03-09T10:25:18.852Z,3.00
2019-03-09T10:27:48.199Z,3.63
2019-03-09T10:30:19.073Z,2.93
2019-03-09T10:32:48.429Z,3.60
2019-03-09T10:35:17.801Z,2.90
2019-03-09T10:37:47.160Z,3.20
2019-03-09T10:40:16.798Z,3.10
2019-03-09T10:42:46.187Z,3.77
2019-03-09T10:45:15.702Z,3.50
2019-03-09T10:47:45.060Z,4.80
2019-03-09T10:50:14.708Z,3.43
2019-03-09T10:52:44.077Z,3.03
2019-03-09T10:55:15.561Z,4.27
2019-03-09T10:57:45.196Z,3.67
2019-03-09T11:00:20.055Z,3.10
2019-03-09T11:02:49.420Z,3.83
2019-03-09T11:05:18.756Z,3.77
2019-03-09T11:07:48.109Z,4.37
2019-03-09T11:10:17.441Z,4.13
2019-03-09T11:12:46.805Z,2.80
2019-03-09T11:15:16.173Z,3.23
2019-03-09T11:17:45.543Z,3.73
2019-03-09T11:20:15.136Z,4.37
2019-03-09T11:22:44.522Z,3.73
2019-03-09T11:25:14.024Z,4.00
2019-03-09T11:27:43.353Z,3.57
2019-03-09T11:30:18.106Z,4.43
2019-03-09T11:32:47.457Z,3.73
2019-03-09T11:35:16.817Z,5.23
2019-03-09T11:37:46.175Z,4.73
2019-03-09T11:40:15.858Z,4.30
2019-03-09T11:42:45.287Z,4.40
2019-03-09T11:45:14.876Z,4.70
2019-03-09T11:47:44.222Z,3.53
2019-03-09T11:50:14.372Z,4.60
2019-03-09T11:52:43.769Z,4.83
2019-03-09T11:55:13.255Z,4.20
2019-03-09T11:57:42.579Z,4.83
2019-03-09T12:00:12.992Z,4.87
2019-03-09T12:02:42.330Z,5.03
2019-03-09T12:05:11.660Z,4.63
2019-03-09T12:07:41.011Z,5.00
2019-03-09T12:10:19.483Z,4.30
2019-03-09T12:12:48.796Z,4.73
2019-03-09T12:15:18.355Z,5.70
2019-03-09T12:17:47.687Z,5.67
2019-03-09T12:20:21.622Z,4.83
2019-03-09T12:22:50.977Z,4.30
2019-03-09T12:25:24.175Z,4.73
2019-03-09T12:27:53.629Z,4.13
2019-03-09T12:30:22.967Z,3.63
2019-03-09T12:32:52.409Z,4.93
2019-03-09T12:35:21.725Z,4.70
2019-03-09T12:37:51.080Z,4.70
2019-03-09T12:40:20.410Z,4.73
2019-03-09T12:42:49.818Z,5.60
2019-03-09T12:45:19.088Z,4.30
2019-03-09T12:47:48.429Z,4.53
2019-03-09T12:50:18.506Z,4.97
2019-03-09T12:52:47.873Z,3.90
2019-03-09T12:55:17.225Z,5.10
2019-03-09T12:57:46.625Z,5.57
2019-03-09T13:00:17.690Z,4.53
2019-03-09T13:02:47.022Z,6.03
2019-03-09T13:05:17.339Z,5.67
2019-03-09T13:07:46.653Z,5.27
2019-03-09T13:10:16.333Z,3.47
2019-03-09T13:12:45.799Z,5.53
2019-03-09T13:15:15.886Z,4.40
2019-03-09T13:17:45.340Z,4.77
2019-03-09T13:20:14.795Z,5.33
2019-03-09T13:22:44.140Z,4.50
2019-03-09T13:25:13.636Z,3.97
2019-03-09T13:27:43.008Z,5.73
2019-03-09T13:30:14.713Z,5.67
2019-03-09T13:32:44.064Z,4.97
2019-03-09T13:35:13.640Z,4.83
2019-03-09T13:37:42.999Z,4.53
2019-03-09T13:40:12.670Z,5.57
2019-03-09T13:42:42.041Z,6.03
2019-03-09T13:45:12.123Z,5.10
2019-03-09T13:47:41.467Z,4.77
2019-03-09T13:50:11.436Z,4.30
2019-03-09T13:52:40.776Z,4.10
2019-03-09T13:55:12.448Z,4.47
2019-03-09T13:57:41.787Z,4.70
2019-03-09T14:00:12.509Z,4.07
2019-03-09T14:02:41.875Z,3.97
2019-03-09T14:05:11.419Z,4.33
2019-03-09T14:07:40.735Z,3.80
2019-03-09T14:10:10.866Z,4.10
2019-03-09T14:12:40.190Z,4.07
2019-03-09T14:15:11.406Z,3.97
2019-03-09T14:17:40.751Z,4.83
2019-03-09T14:20:11.278Z,3.40
2019-03-09T14:22:40.641Z,4.03
2019-03-09T14:25:10.243Z,5.17
2019-03-09T14:27:39.611Z,5.30
2019-03-09T14:30:10.816Z,4.63
2019-03-09T14:32:40.159Z,5.43
2019-03-09T14:35:09.511Z,4.37
2019-03-09T14:37:41.142Z,5.17
2019-03-09T14:40:11.002Z,4.40
2019-03-09T14:42:40.328Z,5.17
2019-03-09T14:45:13.171Z,5.33
2019-03-09T14:47:42.529Z,3.47
2019-03-09T14:50:12.097Z,4.13
2019-03-09T14:52:41.442Z,3.27
2019-03-09T14:55:10.904Z,4.10
2019-03-09T14:57:40.281Z,4.67
2019-03-09T15:00:12.880Z,5.20
2019-03-09T15:02:42.220Z,4.73
2019-03-09T15:05:11.550Z,5.07
2019-03-09T15:07:40.922Z,4.80
2019-03-09T15:10:10.656Z,4.27
2019-03-09T15:12:40.104Z,3.77
2019-03-09T15:15:10.593Z,4.63
2019-03-09T15:17:40.030Z,4.37
2019-03-09T15:20:11.297Z,4.57
2019-03-09T15:22:40.718Z,4.73
2019-03-09T15:25:10.884Z,4.63
2019-03-09T15:27:40.297Z,4.27
2019-03-09T15:30:11.922Z,4.43
2019-03-09T15:32:41.271Z,4.73
2019-03-09T15:35:11.085Z,5.50
2019-03-09T15:37:40.598Z,4.97
2019-03-09T15:40:10.646Z,5.33
2019-03-09T15:42:40.171Z,5.60
2019-03-09T15:45:10.916Z,6.90
2019-03-09T15:47:40.462Z,7.33
2019-03-09T15:50:10.927Z,4.03
2019-03-09T15:52:40.461Z,6.37
2019-03-09T15:55:11.790Z,6.87
2019-03-09T15:57:41.853Z,5.40
2019-03-09T16:00:14.864Z,4.93
2019-03-09T16:02:44.603Z,5.73
2019-03-09T16:05:14.625Z,6.10
2019-03-09T16:07:43.942Z,6.57
2019-03-09T16:10:14.096Z,4.87
2019-03-09T16:12:43.883Z,5.80
2019-03-09T16:15:14.778Z,9.57
2019-03-09T16:17:44.321Z,6.40
2019-03-09T16:20:15.600Z,6.93
2019-03-09T16:22:45.601Z,9.67
2019-03-09T16:25:15.112Z,8.47
2019-03-09T16:27:45.913Z,7.33
2019-03-09T16:30:17.414Z,12.00
2019-03-09T16:32:46.783Z,6.40
2019-03-09T16:35:16.347Z,5.87
2019-03-09T16:37:48.330Z,6.23
2019-03-09T16:40:17.874Z,6.87
2019-03-09T16:42:47.424Z,8.20
2019-03-09T16:45:17.014Z,7.10
2019-03-09T16:47:46.413Z,6.90
2019-03-09T16:50:16.494Z,5.07
2019-03-09T16:52:46.070Z,6.20
2019-03-09T16:55:15.651Z,6.07
2019-03-09T16:57:45.069Z,6.87
2019-03-09T17:00:17.117Z,7.47
2019-03-09T17:02:46.599Z,5.70
2019-03-09T17:05:16.352Z,4.73
2019-03-09T17:07:45.813Z,5.47
2019-03-09T17:10:15.450Z,4.37
2019-03-09T17:12:44.991Z,4.43
2019-03-09T17:15:15.330Z,4.87
2019-03-09T17:17:44.697Z,4.27
2019-03-09T17:20:14.826Z,5.77
2019-03-09T17:22:44.314Z,6.63
2019-03-09T17:25:15.165Z,8.63
2019-03-09T17:27:44.897Z,12.30
2019-03-09T17:30:16.462Z,12.33
2019-03-09T17:32:45.972Z,7.73
2019-03-09T17:35:15.600Z,9.30
2019-03-09T17:37:45.050Z,10.37
2019-03-09T17:40:15.102Z,11.70
2019-03-09T17:42:44.493Z,12.10
2019-03-09T17:45:16.547Z,11.07
2019-03-09T17:47:45.912Z,9.00
2019-03-09T17:50:15.240Z,7.53
2019-03-09T17:52:44.605Z,7.63
2019-03-09T17:55:14.234Z,7.73
2019-03-09T17:57:43.566Z,6.50
2019-03-09T18:00:15.654Z,6.83
2019-03-09T18:02:46.475Z,7.07
2019-03-09T18:05:15.817Z,8.83
2019-03-09T18:07:45.145Z,7.17
2019-03-09T18:10:21.337Z,6.13
2019-03-09T18:12:50.706Z,6.20
2019-03-09T18:15:20.050Z,7.33
2019-03-09T18:17:49.370Z,7.23
2019-03-09T18:20:19.021Z,5.27
2019-03-09T18:22:48.363Z,7.00
2019-03-09T18:25:17.672Z,6.70
2019-03-09T18:27:47.084Z,5.37
2019-03-09T18:30:22.860Z,5.20
2019-03-09T18:32:52.214Z,5.57
2019-03-09T18:35:23.639Z,5.23
2019-03-09T18:37:53.006Z,5.53
2019-03-09T18:40:22.329Z,5.97
2019-03-09T18:42:51.644Z,5.30
2019-03-09T18:45:21.018Z,6.00
2019-03-09T18:47:50.358Z,4.93
2019-03-09T18:50:19.724Z,4.60
2019-03-09T18:52:49.081Z,6.33
2019-03-09T18:55:18.432Z,6.13
2019-03-09T18:57:49.847Z,4.83
2019-03-09T19:00:19.307Z,4.40
2019-03-09T19:02:48.710Z,3.47
2019-03-09T19:05:18.042Z,3.87
2019-03-09T19:07:47.473Z,3.93
2019-03-09T19:10:16.800Z,5.03
2019-03-09T19:12:48.449Z,4.80
2019-03-09T19:15:18.187Z,3.33
2019-03-09T19:17:47.743Z,4.17
2019-03-09T19:20:17.095Z,3.60
2019-03-09T19:22:46.460Z,4.20
2019-03-09T19:25:16.051Z,4.13
2019-03-09T19:27:45.497Z,3.80
2019-03-09T19:30:15.710Z,4.20
2019-03-09T19:32:45.178Z,4.13
2019-03-09T19:35:14.498Z,3.10
2019-03-09T19:37:43.824Z,5.70
2019-03-09T19:40:14.032Z,5.00
2019-03-09T19:42:43.366Z,3.80
2019-03-09T19:45:13.687Z,4.00
2019-03-09T19:47:43.047Z,4.10
2019-03-09T19:50:14.461Z,5.03
2019-03-09T19:52:43.791Z,4.73
2019-03-09T19:55:13.267Z,4.00
2019-03-09T19:57:42.735Z,3.80
2019-03-09T20:00:12.995Z,5.30
2019-03-09T20:02:42.349Z,8.37
2019-03-09T20:05:12.071Z,6.17
2019-03-09T20:07:41.608Z,4.93
2019-03-09T20:10:11.866Z,3.83
2019-03-09T20:12:41.194Z,3.93
2019-03-09T20:15:11.897Z,3.50
2019-03-09T20:17:41.230Z,7.40
2019-03-09T20:20:11.454Z,5.00
2019-03-09T20:22:40.799Z,6.20
2019-03-09T20:25:10.266Z,5.60
2019-03-09T20:27:39.578Z,4.60
2019-03-09T20:30:09.524Z,4.47
2019-03-09T20:32:38.863Z,4.03
2019-03-09T20:35:08.421Z,3.43
2019-03-09T20:37:37.802Z,4.33
2019-03-09T20:40:07.995Z,3.93
2019-03-09T20:42:37.342Z,4.90
2019-03-09T20:45:09.163Z,5.77
2019-03-09T20:47:38.492Z,6.83
2019-03-09T20:50:09.162Z,6.90
2019-03-09T20:52:38.467Z,4.93
2019-03-09T20:55:10.548Z,5.30
2019-03-09T20:57:39.877Z,5.90
2019-03-09T21:00:14.183Z,7.10
2019-03-09T21:02:43.517Z,4.40
2019-03-09T21:05:12.884Z,4.70
2019-03-09T21:07:42.231Z,3.87
2019-03-09T21:10:12.669Z,4.00
2019-03-09T21:13:04.816Z,4.30
2019-03-09T21:15:34.187Z,5.23
2019-03-09T21:18:03.520Z,6.20
2019-03-09T21:20:32.850Z,5.70
2019-03-09T21:23:02.165Z,5.27
2019-03-09T21:25:31.481Z,4.87
2019-03-09T21:28:00.833Z,5.67
2019-03-09T21:30:30.185Z,4.27
2019-03-09T21:32:59.534Z,4.30
2019-03-09T21:35:28.848Z,5.00
2019-03-09T21:37:58.198Z,5.67
2019-03-09T21:40:27.528Z,5.53
2019-03-09T21:42:56.915Z,4.40
2019-03-09T21:45:26.241Z,4.40
2019-03-09T21:47:55.562Z,4.20
2019-03-09T21:50:24.934Z,4.00
2019-03-09T21:52:54.269Z,4.40
2019-03-09T21:55:23.597Z,3.70
2019-03-09T21:57:52.939Z,4.40
2019-03-09T22:00:22.345Z,4.00
2019-03-09T22:02:51.667Z,3.73
2019-03-09T22:05:21.218Z,3.63
2019-03-09T22:07:51.544Z,3.00
2019-03-09T22:10:20.875Z,3.87
2019-03-09T22:12:50.223Z,3.90
2019-03-09T22:15:19.569Z,3.73
2019-03-09T22:17:48.910Z,2.83
2019-03-09T22:20:20.452Z,3.37
2019-03-09T22:22:49.263Z,3.13
2019-03-09T22:25:18.625Z,3.53
2019-03-09T22:27:47.948Z,4.03
2019-03-09T22:30:17.314Z,4.07
2019-03-09T22:32:46.686Z,4.10
2019-03-09T22:35:16.061Z,4.13
2019-03-09T22:37:45.402Z,4.27
2019-03-09T22:40:14.762Z,3.30
2019-03-09T22:42:44.161Z,4.17
2019-03-09T22:45:13.497Z,3.50
2019-03-09T22:47:42.847Z,3.33
2019-03-09T22:50:13.263Z,3.47
2019-03-09T22:52:42.687Z,3.37
2019-03-09T22:55:12.424Z,3.40
2019-03-09T22:57:41.737Z,4.10
2019-03-09T23:00:14.077Z,4.03
2019-03-09T23:02:44.977Z,3.40
2019-03-09T23:05:14.801Z,3.23
2019-03-09T23:07:44.178Z,3.10
2019-03-09T23:10:15.080Z,3.67
2019-03-09T23:12:44.506Z,3.47
2019-03-09T23:15:14.899Z,3.00
2019-03-09T23:17:44.823Z,3.47
2019-03-09T23:20:15.074Z,3.40
2019-03-09T23:22:44.482Z,3.30
2019-03-09T23:25:15.146Z,3.60
2019-03-09T23:27:45.439Z,4.07
2019-03-09T23:30:16.007Z,3.80
2019-03-09T23:32:45.378Z,3.63
2019-03-09T23:35:15.259Z,3.73
2019-03-09T23:37:45.001Z,3.83
2019-03-09T23:40:14.867Z,3.33
2019-03-09T23:42:44.225Z,3.60
2019-03-09T23:45:14.293Z,3.67
2019-03-09T23:47:43.653Z,4.00
2019-03-09T23:50:14.208Z,3.57
2019-03-09T23:52:43.776Z,3.87
2019-03-09T23:55:22.032Z,3.90
2019-03-09T23:57:45.149Z,3.20
